F/V La Mordoree — FGIA — position and weather

sailwx.info

Track history (hours):
 
Tides and Currents Weather Stations Pressure Air Temp Water Temp Dewpoint Dewpoint Depression Visibility Wind Speed Wind Dir Waves Ship Positions

F/V La Mordoree

Last reported at 2018-May-23 04:20 UTC. Time now 2018-May-24 14:08 UTC.
Position N 46°48' W 002°60'.

Length 18 m.

Type: Other ship. MMSI: 228248000.

Date/timePositionNaut miles runAvg speedWind from/ knotsBaromVisibWave heightAir tempDewpointWater temp
2018-May-23 04:20N 46°48' W 002°60'23 9.6
2018-May-23 01:56N 47°08' W 002°43'610.2
2018-May-23 01:22N 47°13' W 002°39'410.1
2018-May-23 01:00N 47°16' W 002°36'5 9.8
2018-May-23 00:30N 47°20' W 002°32'1 2.0
2018-May-23 00:00N 47°21' W 002°31'2 4.4
2018-May-22 23:27N 47°19' W 002°33'4 8.8
2018-May-22 22:58N 47°15' W 002°37'37 2.5
2018-May-22 07:41N 46°54' W 003°21'2 0.7
2018-May-22 05:25N 46°52' W 003°21'21 7.6
2018-May-22 02:41N 47°04' W 002°56'2 9.6
2018-May-22 02:29N 47°05' W 002°54'5 9.9
2018-May-22 02:00N 47°08' W 002°49'5 9.9
2018-May-22 01:30N 47°12' W 002°43'510.3
2018-May-22 01:00N 47°15' W 002°38'510.0
2018-May-22 00:30N 47°19' W 002°33'2 4.7
2018-May-22 00:00N 47°21' W 002°31'2 1.6
2018-May-21 22:58N 47°20' W 002°32'6 9.0
2018-May-21 22:16N 47°15' W 002°38'2 8.8
2018-May-21 22:00N 47°13' W 002°41'8 9.2
2018-May-21 21:10N 47°09' W 002°50'26 7.9
2018-May-21 17:52N 46°52' W 003°20'0 0.0
2018-May-21 06:09N 46°52' W 003°19'1 3.7
2018-May-21 05:56N 46°52' W 003°18'7 2.3
2018-May-21 03:03N 46°47' W 003°13'0 4.1
2018-May-21 03:00N 46°46' W 003°13'2 4.1
2018-May-21 02:30N 46°45' W 003°10'3 3.9
2018-May-21 01:39N 46°43' W 003°06'1 4.1
2018-May-21 01:29N 46°42' W 003°06'2 3.5
2018-May-21 01:00N 46°41' W 003°05'3 3.7
2018-May-21 00:19N 46°40' W 003°09'14 3.3
2018-May-20 19:56N 46°51' W 003°22'3 3.0
2018-May-20 18:56N 46°51' W 003°18'3 0.3
2018-May-20 09:40N 46°49' W 003°17'1 4.0
2018-May-20 09:26N 46°48' W 003°16'2 4.0
2018-May-20 09:00N 46°47' W 003°14'21 6.7
2018-May-20 05:51N 47°02' W 002°53'4 8.7
2018-May-20 05:24N 47°05' W 002°49'3 8.6
2018-May-20 05:00N 47°08' W 002°46'4 8.5
2018-May-20 04:28N 47°11' W 002°42'4 8.4
2018-May-20 03:58N 47°15' W 002°38'4 8.7
2018-May-20 03:28N 47°18' W 002°34'3 0.9
2018-May-19 23:30N 47°21' W 002°31'43 1.5
2018-May-18 18:57N 46°47' W 003°10'2 0.2
2018-May-18 09:28N 46°45' W 003°10'29 4.4
2018-May-18 03:02N 47°08' W 002°45'0 8.5
2018-May-18 03:00N 47°08' W 002°45'5 8.4
2018-May-18 02:26N 47°12' W 002°41'4 8.5
2018-May-18 01:59N 47°15' W 002°38'4 8.8
2018-May-18 01:29N 47°19' W 002°34'42 0.9
2018-May-16 02:39N 46°41' W 003°02'9 0.9
2018-May-15 16:58N 46°33' W 003°01'2 3.4
2018-May-15 16:26N 46°31' W 002°60'1 2.0
2018-May-15 16:00N 46°30' W 002°59'2 3.3
2018-May-15 15:27N 46°29' W 002°57'39 3.3
2018-May-15 03:34N 47°06' W 002°41'1 9.3
2018-May-15 03:29N 47°07' W 002°41'5 9.1
2018-May-15 02:59N 47°11' W 002°38'4 9.1
2018-May-15 02:30N 47°15' W 002°36'5 9.3
2018-May-15 01:59N 47°20' W 002°32'2 3.4
2018-May-15 01:30N 47°21' W 002°31'0 0.0
2018-May-15 00:43N 47°21' W 002°31'0 0.0
2018-May-15 00:29N 47°21' W 002°31'0 0.0
2018-May-15 00:00N 47°21' W 002°31'4 5.5
2018-May-14 23:14N 47°18' W 002°35'2 9.0
2018-May-14 23:00N 47°16' W 002°36'5 8.9
2018-May-14 22:29N 47°12' W 002°39'  
Track history (hours):
 
Tides and Currents Weather Stations Pressure Air Temp Water Temp Dewpoint Dewpoint Depression Visibility Wind Speed Wind Dir Waves Ship Positions

F/V La Mordoree

Last reported at 2018-May-23 04:20 UTC. Time now 2018-May-24 14:08 UTC.
Position N 46°48' W 002°60'.

Length 18 m.

Type: Other ship. MMSI: 228248000.

Date/timePositionNaut miles runAvg speedWind from/ knotsBaromVisibWave heightAir tempDewpointWater temp
2018-May-23 04:20N 46°48' W 002°60'23 9.6
2018-May-23 01:56N 47°08' W 002°43'610.2
2018-May-23 01:22N 47°13' W 002°39'410.1
2018-May-23 01:00N 47°16' W 002°36'5 9.8
2018-May-23 00:30N 47°20' W 002°32'1 2.0
2018-May-23 00:00N 47°21' W 002°31'2 4.4
2018-May-22 23:27N 47°19' W 002°33'4 8.8
2018-May-22 22:58N 47°15' W 002°37'37 2.5
2018-May-22 07:41N 46°54' W 003°21'2 0.7
2018-May-22 05:25N 46°52' W 003°21'21 7.6
2018-May-22 02:41N 47°04' W 002°56'2 9.6
2018-May-22 02:29N 47°05' W 002°54'5 9.9
2018-May-22 02:00N 47°08' W 002°49'5 9.9
2018-May-22 01:30N 47°12' W 002°43'510.3
2018-May-22 01:00N 47°15' W 002°38'510.0
2018-May-22 00:30N 47°19' W 002°33'2 4.7
2018-May-22 00:00N 47°21' W 002°31'2 1.6
2018-May-21 22:58N 47°20' W 002°32'6 9.0
2018-May-21 22:16N 47°15' W 002°38'2 8.8
2018-May-21 22:00N 47°13' W 002°41'8 9.2
2018-May-21 21:10N 47°09' W 002°50'26 7.9
2018-May-21 17:52N 46°52' W 003°20'0 0.0
2018-May-21 06:09N 46°52' W 003°19'1 3.7
2018-May-21 05:56N 46°52' W 003°18'7 2.3
2018-May-21 03:03N 46°47' W 003°13'0 4.1
2018-May-21 03:00N 46°46' W 003°13'2 4.1
2018-May-21 02:30N 46°45' W 003°10'3 3.9
2018-May-21 01:39N 46°43' W 003°06'1 4.1
2018-May-21 01:29N 46°42' W 003°06'2 3.5
2018-May-21 01:00N 46°41' W 003°05'3 3.7
2018-May-21 00:19N 46°40' W 003°09'14 3.3
2018-May-20 19:56N 46°51' W 003°22'3 3.0
2018-May-20 18:56N 46°51' W 003°18'3 0.3
2018-May-20 09:40N 46°49' W 003°17'1 4.0
2018-May-20 09:26N 46°48' W 003°16'2 4.0
2018-May-20 09:00N 46°47' W 003°14'21 6.7
2018-May-20 05:51N 47°02' W 002°53'4 8.7
2018-May-20 05:24N 47°05' W 002°49'3 8.6
2018-May-20 05:00N 47°08' W 002°46'4 8.5
2018-May-20 04:28N 47°11' W 002°42'4 8.4
2018-May-20 03:58N 47°15' W 002°38'4 8.7
2018-May-20 03:28N 47°18' W 002°34'3 0.9
2018-May-19 23:30N 47°21' W 002°31'43 1.5
2018-May-18 18:57N 46°47' W 003°10'2 0.2
2018-May-18 09:28N 46°45' W 003°10'29 4.4
2018-May-18 03:02N 47°08' W 002°45'0 8.5
2018-May-18 03:00N 47°08' W 002°45'5 8.4
2018-May-18 02:26N 47°12' W 002°41'4 8.5
2018-May-18 01:59N 47°15' W 002°38'4 8.8
2018-May-18 01:29N 47°19' W 002°34'42 0.9
2018-May-16 02:39N 46°41' W 003°02'9 0.9
2018-May-15 16:58N 46°33' W 003°01'2 3.4
2018-May-15 16:26N 46°31' W 002°60'1 2.0
2018-May-15 16:00N 46°30' W 002°59'2 3.3
2018-May-15 15:27N 46°29' W 002°57'39 3.3
2018-May-15 03:34N 47°06' W 002°41'1 9.3
2018-May-15 03:29N 47°07' W 002°41'5 9.1
2018-May-15 02:59N 47°11' W 002°38'4 9.1
2018-May-15 02:30N 47°15' W 002°36'5 9.3
2018-May-15 01:59N 47°20' W 002°32'2 3.4
2018-May-15 01:30N 47°21' W 002°31'0 0.0
2018-May-15 00:43N 47°21' W 002°31'0 0.0
2018-May-15 00:29N 47°21' W 002°31'0 0.0
2018-May-15 00:00N 47°21' W 002°31'4 5.5
2018-May-14 23:14N 47°18' W 002°35'2 9.0
2018-May-14 23:00N 47°16' W 002°36'5 8.9
2018-May-14 22:29N 47°12' W 002°39'  

Dump ship's entire track history